sensor_id;sensor_type;location;lat;lon;timestamp;pressure;altitude;pressure_sealevel;temperature;humidity
75136;BME280;63707;52.212;9.540;2023-10-31T13:17:13;98534.63;;;11.56;100.00
75136;BME280;63707;52.212;9.540;2023-10-31T13:19:38;98549.50;;;11.48;100.00
75136;BME280;63707;52.212;9.540;2023-10-31T13:22:04;98550.81;;;11.62;100.00
75136;BME280;63707;52.212;9.540;2023-10-31T13:24:29;98545.78;;;11.88;100.00
75136;BME280;63707;52.212;9.540;2023-10-31T13:26:54;98570.88;;;11.73;100.00
75136;BME280;63707;52.212;9.540;2023-10-31T13:29:20;98567.06;;;11.74;100.00
75136;BME280;63707;52.212;9.540;2023-10-31T13:31:46;98577.03;;;11.80;100.00
75136;BME280;63707;52.212;9.540;2023-10-31T13:34:13;98576.13;;;11.58;100.00
75136;BME280;63707;52.212;9.540;2023-10-31T13:36:38;98574.63;;;11.50;100.00
75136;BME280;63707;52.212;9.540;2023-10-31T13:39:04;98573.66;;;11.40;100.00
75136;BME280;63707;52.212;9.540;2023-10-31T13:41:29;98585.28;;;11.52;100.00
75136;BME280;63707;52.212;9.540;2023-10-31T13:43:55;98581.06;;;11.27;100.00
75136;BME280;63707;52.212;9.540;2023-10-31T13:46:20;98589.31;;;11.32;100.00
75136;BME280;63707;52.212;9.540;2023-10-31T13:48:46;98593.13;;;11.31;100.00
75136;BME280;63707;52.212;9.540;2023-10-31T13:51:13;98590.84;;;11.40;100.00
75136;BME280;63707;52.212;9.540;2023-10-31T13:53:38;98593.31;;;11.42;100.00
75136;BME280;63707;52.212;9.540;2023-10-31T13:56:04;98603.66;;;11.56;100.00
75136;BME280;63707;52.212;9.540;2023-10-31T13:58:30;98615.13;;;11.58;100.00
75136;BME280;63707;52.212;9.540;2023-10-31T14:00:55;98615.28;;;11.52;100.00
75136;BME280;63707;52.212;9.540;2023-10-31T14:03:21;98615.06;;;11.37;100.00
75136;BME280;63707;52.212;9.540;2023-10-31T14:05:47;98616.00;;;11.30;100.00
75136;BME280;63707;52.212;9.540;2023-10-31T14:08:14;98617.91;;;11.30;100.00
75136;BME280;63707;52.212;9.540;2023-10-31T14:10:39;98609.63;;;11.25;100.00
75136;BME280;63707;52.212;9.540;2023-10-31T14:13:05;98612.38;;;11.25;100.00
75136;BME280;63707;52.212;9.540;2023-10-31T14:15:30;98617.00;;;11.24;100.00
75136;BME280;63707;52.212;9.540;2023-10-31T14:17:58;98614.03;;;11.26;100.00
75136;BME280;63707;52.212;9.540;2023-10-31T14:20:23;98618.16;;;11.28;100.00
75136;BME280;63707;52.212;9.540;2023-10-31T14:22:50;98615.25;;;11.35;100.00
75136;BME280;63707;52.212;9.540;2023-10-31T14:25:17;98607.41;;;11.22;100.00
75136;BME280;63707;52.212;9.540;2023-10-31T14:27:43;98628.47;;;11.26;100.00
75136;BME280;63707;52.212;9.540;2023-10-31T14:30:09;98633.00;;;11.21;100.00
75136;BME280;63707;52.212;9.540;2023-10-31T14:32:35;98631.38;;;11.20;100.00
75136;BME280;63707;52.212;9.540;2023-10-31T14:35:01;98634.91;;;11.20;100.00
75136;BME280;63707;52.212;9.540;2023-10-31T14:37:26;98641.09;;;11.16;100.00
75136;BME280;63707;52.212;9.540;2023-10-31T14:39:53;98648.47;;;11.15;100.00
75136;BME280;63707;52.212;9.540;2023-10-31T14:42:20;98643.66;;;11.06;100.00
75136;BME280;63707;52.212;9.540;2023-10-31T14:44:48;98647.94;;;11.01;100.00
75136;BME280;63707;52.212;9.540;2023-10-31T14:47:14;98656.13;;;11.01;100.00
75136;BME280;63707;52.212;9.540;2023-10-31T14:49:39;98660.88;;;10.94;100.00
75136;BME280;63707;52.212;9.540;2023-10-31T14:52:05;98658.28;;;10.88;100.00
75136;BME280;63707;52.212;9.540;2023-10-31T14:54:34;98657.41;;;11.27;100.00
75136;BME280;63707;52.212;9.540;2023-10-31T14:57:00;98658.78;;;11.42;100.00
75136;BME280;63707;52.212;9.540;2023-10-31T14:59:27;98664.31;;;11.18;100.00
75136;BME280;63707;52.212;9.540;2023-10-31T15:01:53;98676.59;;;11.04;100.00
75136;BME280;63707;52.212;9.540;2023-10-31T15:04:19;98675.19;;;11.01;100.00
75136;BME280;63707;52.212;9.540;2023-10-31T15:06:44;98677.81;;;10.96;100.00
75136;BME280;63707;52.212;9.540;2023-10-31T15:09:10;98693.69;;;10.99;100.00
75136;BME280;63707;52.212;9.540;2023-10-31T15:11:36;98697.50;;;10.87;100.00
75136;BME280;63707;52.212;9.540;2023-10-31T15:14:01;98699.53;;;10.80;100.00
75136;BME280;63707;52.212;9.540;2023-10-31T15:16:28;98696.59;;;10.69;100.00
75136;BME280;63707;52.212;9.540;2023-10-31T15:18:54;98709.28;;;10.64;100.00
75136;BME280;63707;52.212;9.540;2023-10-31T15:21:19;98722.06;;;10.63;100.00
75136;BME280;63707;52.212;9.540;2023-10-31T15:23:45;98719.84;;;10.37;100.00
75136;BME280;63707;52.212;9.540;2023-10-31T15:26:11;98719.50;;;10.22;100.00
75136;BME280;63707;52.212;9.540;2023-10-31T15:28:38;98725.41;;;10.30;100.00
75136;BME280;63707;52.212;9.540;2023-10-31T15:31:04;98725.78;;;10.22;100.00
75136;BME280;63707;52.212;9.540;2023-10-31T15:33:32;98735.09;;;10.15;100.00
75136;BME280;63707;52.212;9.540;2023-10-31T15:35:57;98736.75;;;10.04;100.00
75136;BME280;63707;52.212;9.540;2023-10-31T15:38:23;98728.66;;;9.86;100.00
75136;BME280;63707;52.212;9.540;2023-10-31T15:40:49;98744.75;;;9.87;100.00
75136;BME280;63707;52.212;9.540;2023-10-31T15:43:14;98752.06;;;9.87;100.00
75136;BME280;63707;52.212;9.540;2023-10-31T15:45:40;98737.41;;;9.88;100.00
75136;BME280;63707;52.212;9.540;2023-10-31T15:48:06;98744.38;;;9.84;100.00
75136;BME280;63707;52.212;9.540;2023-10-31T15:50:34;98739.63;;;9.79;100.00
75136;BME280;63707;52.212;9.540;2023-10-31T15:52:59;98758.78;;;9.72;100.00
75136;BME280;63707;52.212;9.540;2023-10-31T15:55:25;98753.13;;;9.74;100.00
75136;BME280;63707;52.212;9.540;2023-10-31T15:57:50;98762.91;;;9.63;100.00
75136;BME280;63707;52.212;9.540;2023-10-31T16:00:16;98759.94;;;9.65;100.00
75136;BME280;63707;52.212;9.540;2023-10-31T16:02:42;98766.31;;;9.59;100.00
75136;BME280;63707;52.212;9.540;2023-10-31T16:05:07;98764.53;;;9.53;100.00
75136;BME280;63707;52.212;9.540;2023-10-31T16:07:34;98765.34;;;9.53;100.00
75136;BME280;63707;52.212;9.540;2023-10-31T16:10:03;98770.66;;;9.48;100.00
75136;BME280;63707;52.212;9.540;2023-10-31T16:12:28;98770.44;;;9.50;100.00
75136;BME280;63707;52.212;9.540;2023-10-31T16:14:54;98781.97;;;9.45;100.00
75136;BME280;63707;52.212;9.540;2023-10-31T16:17:19;98786.97;;;9.48;100.00
75136;BME280;63707;52.212;9.540;2023-10-31T16:19:45;98784.09;;;9.43;100.00
75136;BME280;63707;52.212;9.540;2023-10-31T16:22:13;98792.66;;;9.46;100.00
75136;BME280;63707;52.212;9.540;2023-10-31T16:24:40;98793.63;;;9.34;100.00
75136;BME280;63707;52.212;9.540;2023-10-31T16:27:06;98799.44;;;9.37;100.00
75136;BME280;63707;52.212;9.540;2023-10-31T16:29:32;98803.66;;;9.33;100.00
75136;BME280;63707;52.212;9.540;2023-10-31T16:31:58;98807.44;;;9.32;100.00
75136;BME280;63707;52.212;9.540;2023-10-31T16:34:23;98817.88;;;9.35;100.00
75136;BME280;63707;52.212;9.540;2023-10-31T16:36:49;98815.38;;;9.34;100.00
75136;BME280;63707;52.212;9.540;2023-10-31T16:39:14;98818.56;;;9.31;100.00
75136;BME280;63707;52.212;9.540;2023-10-31T16:41:42;98826.69;;;9.31;100.00
75136;BME280;63707;52.212;9.540;2023-10-31T16:44:07;98821.28;;;9.31;100.00
75136;BME280;63707;52.212;9.540;2023-10-31T16:46:33;98824.81;;;9.31;100.00
75136;BME280;63707;52.212;9.540;2023-10-31T16:48:59;98820.06;;;9.27;100.00
75136;BME280;63707;52.212;9.540;2023-10-31T16:51:25;98826.19;;;9.22;100.00
75136;BME280;63707;52.212;9.540;2023-10-31T16:53:50;98826.41;;;9.21;100.00
75136;BME280;63707;52.212;9.540;2023-10-31T16:56:16;98831.75;;;9.27;100.00
75136;BME280;63707;52.212;9.540;2023-10-31T16:58:44;98838.03;;;9.28;100.00
75136;BME280;63707;52.212;9.540;2023-10-31T17:01:11;98834.84;;;9.31;100.00
75136;BME280;63707;52.212;9.540;2023-10-31T17:03:37;98842.88;;;9.26;100.00
75136;BME280;63707;52.212;9.540;2023-10-31T17:06:04;98847.25;;;9.27;100.00
75136;BME280;63707;52.212;9.540;2023-10-31T17:08:29;98846.03;;;9.23;100.00
75136;BME280;63707;52.212;9.540;2023-10-31T17:10:55;98855.84;;;9.24;100.00
75136;BME280;63707;52.212;9.540;2023-10-31T17:13:20;98851.47;;;9.23;100.00
75136;BME280;63707;52.212;9.540;2023-10-31T17:15:47;98856.91;;;9.23;100.00
75136;BME280;63707;52.212;9.540;2023-10-31T17:18:13;98859.09;;;9.32;100.00
75136;BME280;63707;52.212;9.540;2023-10-31T17:20:41;98866.19;;;9.33;100.00
75136;BME280;63707;52.212;9.540;2023-10-31T17:23:06;98855.16;;;9.28;100.00
75136;BME280;63707;52.212;9.540;2023-10-31T17:25:32;98857.28;;;9.26;100.00
75136;BME280;63707;52.212;9.540;2023-10-31T17:27:57;98861.53;;;9.22;100.00
75136;BME280;63707;52.212;9.540;2023-10-31T17:30:23;98874.50;;;9.20;100.00
75136;BME280;63707;52.212;9.540;2023-10-31T17:32:50;98879.72;;;9.22;100.00
75136;BME280;63707;52.212;9.540;2023-10-31T17:35:16;98874.66;;;9.25;100.00
75136;BME280;63707;52.212;9.540;2023-10-31T17:37:41;98885.06;;;9.28;100.00
75136;BME280;63707;52.212;9.540;2023-10-31T17:40:08;98888.31;;;9.37;100.00
75136;BME280;63707;52.212;9.540;2023-10-31T17:42:34;98888.69;;;9.40;100.00
75136;BME280;63707;52.212;9.540;2023-10-31T17:45:00;98899.34;;;9.42;100.00
75136;BME280;63707;52.212;9.540;2023-10-31T17:47:25;98898.03;;;9.44;100.00
75136;BME280;63707;52.212;9.540;2023-10-31T17:49:52;98899.50;;;9.47;100.00
75136;BME280;63707;52.212;9.540;2023-10-31T17:52:18;98897.22;;;9.44;100.00
75136;BME280;63707;52.212;9.540;2023-10-31T17:54:43;98906.00;;;9.46;100.00
75136;BME280;63707;52.212;9.540;2023-10-31T17:57:10;98907.03;;;9.45;100.00
75136;BME280;63707;52.212;9.540;2023-10-31T17:59:36;98920.44;;;9.46;100.00
75136;BME280;63707;52.212;9.540;2023-10-31T18:02:02;98912.88;;;9.49;100.00
75136;BME280;63707;52.212;9.540;2023-10-31T18:04:28;98925.03;;;9.46;100.00
75136;BME280;63707;52.212;9.540;2023-10-31T18:06:56;98920.84;;;9.43;100.00
75136;BME280;63707;52.212;9.540;2023-10-31T18:09:21;98923.34;;;9.45;100.00
75136;BME280;63707;52.212;9.540;2023-10-31T18:11:47;98929.84;;;9.44;100.00
75136;BME280;63707;52.212;9.540;2023-10-31T18:14:12;98941.50;;;9.51;100.00
75136;BME280;63707;52.212;9.540;2023-10-31T18:16:38;98929.19;;;9.49;100.00
75136;BME280;63707;52.212;9.540;2023-10-31T18:19:03;98936.50;;;9.48;100.00
75136;BME280;63707;52.212;9.540;2023-10-31T18:21:30;98940.91;;;9.49;100.00
75136;BME280;63707;52.212;9.540;2023-10-31T18:23:57;98944.22;;;9.51;100.00
75136;BME280;63707;52.212;9.540;2023-10-31T18:26:22;98945.28;;;9.50;100.00
75136;BME280;63707;52.212;9.540;2023-10-31T18:28:48;98953.44;;;9.50;100.00
75136;BME280;63707;52.212;9.540;2023-10-31T18:31:15;98958.28;;;9.48;100.00
75136;BME280;63707;52.212;9.540;2023-10-31T18:33:41;98947.41;;;9.48;100.00
75136;BME280;63707;52.212;9.540;2023-10-31T18:36:07;98948.88;;;9.44;100.00
75136;BME280;63707;52.212;9.540;2023-10-31T18:38:33;98956.81;;;9.45;100.00
75136;BME280;63707;52.212;9.540;2023-10-31T18:41:01;98961.41;;;9.45;100.00
75136;BME280;63707;52.212;9.540;2023-10-31T18:43:27;98962.19;;;9.52;100.00
75136;BME280;63707;52.212;9.540;2023-10-31T18:45:52;98963.47;;;9.50;100.00
75136;BME280;63707;52.212;9.540;2023-10-31T18:48:18;98963.03;;;9.53;100.00
75136;BME280;63707;52.212;9.540;2023-10-31T18:50:44;98974.72;;;9.53;100.00
75136;BME280;63707;52.212;9.540;2023-10-31T18:53:09;98966.56;;;9.53;100.00
75136;BME280;63707;52.212;9.540;2023-10-31T18:55:37;98967.63;;;9.52;100.00
75136;BME280;63707;52.212;9.540;2023-10-31T18:58:04;98976.25;;;9.49;100.00
75136;BME280;63707;52.212;9.540;2023-10-31T19:00:29;98971.03;;;9.48;100.00
75136;BME280;63707;52.212;9.540;2023-10-31T19:02:54;98973.53;;;9.49;100.00
75136;BME280;63707;52.212;9.540;2023-10-31T19:05:20;98980.03;;;9.48;100.00
75136;BME280;63707;52.212;9.540;2023-10-31T19:07:46;98978.34;;;9.47;100.00
75136;BME280;63707;52.212;9.540;2023-10-31T19:10:12;98977.94;;;9.43;100.00
75136;BME280;63707;52.212;9.540;2023-10-31T19:12:38;98983.16;;;9.45;100.00
75136;BME280;63707;52.212;9.540;2023-10-31T19:15:06;98979.22;;;9.41;100.00
75136;BME280;63707;52.212;9.540;2023-10-31T19:17:31;98980.28;;;9.40;100.00
75136;BME280;63707;52.212;9.540;2023-10-31T19:19:57;98982.56;;;9.43;100.00
75136;BME280;63707;52.212;9.540;2023-10-31T19:22:22;98979.47;;;9.39;100.00
75136;BME280;63707;52.212;9.540;2023-10-31T19:24:48;98991.84;;;9.35;100.00
75136;BME280;63707;52.212;9.540;2023-10-31T19:27:15;98992.91;;;9.34;100.00
75136;BME280;63707;52.212;9.540;2023-10-31T19:29:41;98985.78;;;9.33;100.00
75136;BME280;63707;52.212;9.540;2023-10-31T19:32:08;98991.84;;;9.35;100.00
75136;BME280;63707;52.212;9.540;2023-10-31T19:34:33;98994.94;;;9.39;100.00
75136;BME280;63707;52.212;9.540;2023-10-31T19:36:59;98998.72;;;9.38;100.00
75136;BME280;63707;52.212;9.540;2023-10-31T19:39:24;98999.53;;;9.38;100.00
75136;BME280;63707;52.212;9.540;2023-10-31T19:41:51;98995.38;;;9.36;100.00
75136;BME280;63707;52.212;9.540;2023-10-31T19:44:16;98994.78;;;9.34;100.00
75136;BME280;63707;52.212;9.540;2023-10-31T19:46:42;98994.19;;;9.32;100.00
75136;BME280;63707;52.212;9.540;2023-10-31T19:49:09;98996.28;;;9.30;100.00
75136;BME280;63707;52.212;9.540;2023-10-31T19:51:34;98997.94;;;9.31;100.00
75136;BME280;63707;52.212;9.540;2023-10-31T19:54:00;98996.50;;;9.28;100.00
75136;BME280;63707;52.212;9.540;2023-10-31T19:56:25;98991.69;;;9.30;100.00
75136;BME280;63707;52.212;9.540;2023-10-31T19:58:51;98995.06;;;9.26;100.00
75136;BME280;63707;52.212;9.540;2023-10-31T20:01:17;99000.56;;;9.19;100.00
75136;BME280;63707;52.212;9.540;2023-10-31T20:03:43;98995.22;;;9.12;100.00
75136;BME280;63707;52.212;9.540;2023-10-31T20:06:10;98992.72;;;9.11;100.00
75136;BME280;63707;52.212;9.540;2023-10-31T20:08:35;98998.81;;;9.06;100.00
75136;BME280;63707;52.212;9.540;2023-10-31T20:11:01;99002.19;;;9.02;100.00
75136;BME280;63707;52.212;9.540;2023-10-31T20:13:27;98997.00;;;9.00;100.00
75136;BME280;63707;52.212;9.540;2023-10-31T20:15:53;99005.38;;;8.99;100.00
75136;BME280;63707;52.212;9.540;2023-10-31T20:18:20;99005.38;;;8.99;100.00
75136;BME280;63707;52.212;9.540;2023-10-31T20:20:47;99013.75;;;8.91;100.00
75136;BME280;63707;52.212;9.540;2023-10-31T20:23:14;99009.22;;;8.84;100.00
75136;BME280;63707;52.212;9.540;2023-10-31T20:25:40;99006.06;;;8.88;100.00
75136;BME280;63707;52.212;9.540;2023-10-31T20:28:06;99011.28;;;8.89;100.00
75136;BME280;63707;52.212;9.540;2023-10-31T20:30:32;99025.84;;;8.95;100.00
75136;BME280;63707;52.212;9.540;2023-10-31T20:32:57;99011.00;;;8.97;100.00
75136;BME280;63707;52.212;9.540;2023-10-31T20:35:23;99018.09;;;8.98;100.00
75136;BME280;63707;52.212;9.540;2023-10-31T20:37:49;99016.00;;;9.00;100.00
75136;BME280;63707;52.212;9.540;2023-10-31T20:40:16;99014.13;;;9.01;100.00
75136;BME280;63707;52.212;9.540;2023-10-31T20:42:41;99012.25;;;9.01;100.00
75136;BME280;63707;52.212;9.540;2023-10-31T20:45:09;99014.75;;;8.96;100.00
75136;BME280;63707;52.212;9.540;2023-10-31T20:47:34;99020.84;;;8.92;100.00
75136;BME280;63707;52.212;9.540;2023-10-31T20:50:00;99017.53;;;8.90;100.00
75136;BME280;63707;52.212;9.540;2023-10-31T20:52:26;99019.63;;;8.88;100.00
75136;BME280;63707;52.212;9.540;2023-10-31T20:54:51;99019.41;;;8.89;100.00
75136;BME280;63707;52.212;9.540;2023-10-31T20:57:18;99020.03;;;8.91;100.00
75136;BME280;63707;52.212;9.540;2023-10-31T20:59:44;99017.75;;;8.88;100.00
75136;BME280;63707;52.212;9.540;2023-10-31T21:02:10;99015.03;;;8.88;100.00
75136;BME280;63707;52.212;9.540;2023-10-31T21:04:35;99015.81;;;8.95;100.00
75136;BME280;63707;52.212;9.540;2023-10-31T21:07:01;99012.03;;;8.96;100.00
75136;BME280;63707;52.212;9.540;2023-10-31T21:09:27;99008.09;;;8.99;100.00
75136;BME280;63707;52.212;9.540;2023-10-31T21:11:52;99014.13;;;9.01;100.00
75136;BME280;63707;52.212;9.540;2023-10-31T21:14:19;99006.59;;;9.03;100.00
75136;BME280;63707;52.212;9.540;2023-10-31T21:16:45;99012.84;;;9.03;100.00
75136;BME280;63707;52.212;9.540;2023-10-31T21:19:10;99008.47;;;9.02;100.00
75136;BME280;63707;52.212;9.540;2023-10-31T21:21:36;99004.69;;;9.03;100.00
75136;BME280;63707;52.212;9.540;2023-10-31T21:24:02;99003.88;;;9.03;100.00
75136;BME280;63707;52.212;9.540;2023-10-31T21:26:27;99004.69;;;9.03;100.00
75136;BME280;63707;52.212;9.540;2023-10-31T21:28:53;98994.44;;;9.05;100.00
75136;BME280;63707;52.212;9.540;2023-10-31T21:31:20;98999.44;;;9.08;100.00
75136;BME280;63707;52.212;9.540;2023-10-31T21:33:45;98997.97;;;9.06;100.00
75136;BME280;63707;52.212;9.540;2023-10-31T21:36:11;98997.75;;;9.07;100.00
75136;BME280;63707;52.212;9.540;2023-10-31T21:38:36;98992.94;;;9.09;100.00
75136;BME280;63707;52.212;9.540;2023-10-31T21:41:03;99008.25;;;9.04;100.00
75136;BME280;63707;52.212;9.540;2023-10-31T21:43:30;99001.97;;;9.03;100.00
75136;BME280;63707;52.212;9.540;2023-10-31T21:45:56;99008.63;;;9.07;100.00
75136;BME280;63707;52.212;9.540;2023-10-31T21:48:23;99002.19;;;9.02;100.00
75136;BME280;63707;52.212;9.540;2023-10-31T21:50:48;99001.38;;;9.01;100.00
75136;BME280;63707;52.212;9.540;2023-10-31T21:53:14;99011.34;;;9.07;100.00
75136;BME280;63707;52.212;9.540;2023-10-31T21:55:39;99005.31;;;9.05;100.00
75136;BME280;63707;52.212;9.540;2023-10-31T21:58:05;99005.97;;;9.01;100.00
75136;BME280;63707;52.212;9.540;2023-10-31T22:00:30;99011.41;;;9.01;100.00
75136;BME280;63707;52.212;9.540;2023-10-31T22:02:56;99013.91;;;9.02;100.00
75136;BME280;63707;52.212;9.540;2023-10-31T22:05:23;99014.72;;;9.03;100.00
75136;BME280;63707;52.212;9.540;2023-10-31T22:07:48;99014.69;;;9.09;100.00
75136;BME280;63707;52.212;9.540;2023-10-31T22:10:13;99010.91;;;9.10;100.00
75136;BME280;63707;52.212;9.540;2023-10-31T22:12:39;99009.31;;;9.03;100.00
75136;BME280;63707;52.212;9.540;2023-10-31T22:15:05;99013.22;;;9.07;100.00
75136;BME280;63707;52.212;9.540;2023-10-31T22:17:31;99016.78;;;9.07;100.00
75136;BME280;63707;52.212;9.540;2023-10-31T22:19:56;99010.28;;;9.08;100.00
75136;BME280;63707;52.212;9.540;2023-10-31T22:22:24;99009.91;;;9.05;100.00
75136;BME280;63707;52.212;9.540;2023-10-31T22:24:50;99006.34;;;9.04;100.00
75136;BME280;63707;52.212;9.540;2023-10-31T22:27:15;99012.63;;;9.05;100.00
75136;BME280;63707;52.212;9.540;2023-10-31T22:29:41;99015.94;;;9.07;100.00
75136;BME280;63707;52.212;9.540;2023-10-31T22:32:06;99017.44;;;9.03;100.00
75136;BME280;63707;52.212;9.540;2023-10-31T22:34:32;99004.47;;;9.05;100.00
75136;BME280;63707;52.212;9.540;2023-10-31T22:36:57;99003.47;;;8.99;100.00
75136;BME280;63707;52.212;9.540;2023-10-31T22:39:26;99000.75;;;8.99;100.00
75136;BME280;63707;52.212;9.540;2023-10-31T22:41:51;99007.03;;;9.00;100.00
75136;BME280;63707;52.212;9.540;2023-10-31T22:44:17;99010.81;;;8.92;100.00
75136;BME280;63707;52.212;9.540;2023-10-31T22:46:42;99010.22;;;8.90;100.00
75136;BME280;63707;52.212;9.540;2023-10-31T22:49:08;99013.94;;;8.96;100.00
75136;BME280;63707;52.212;9.540;2023-10-31T22:51:33;99014.75;;;8.96;100.00
75136;BME280;63707;52.212;9.540;2023-10-31T22:53:59;99016.41;;;8.97;100.00
75136;BME280;63707;52.212;9.540;2023-10-31T22:56:26;99019.97;;;8.98;100.00
75136;BME280;63707;52.212;9.540;2023-10-31T22:58:53;99018.75;;;8.94;100.00
75136;BME280;63707;52.212;9.540;2023-10-31T23:01:19;99012.25;;;8.95;100.00
75136;BME280;63707;52.212;9.540;2023-10-31T23:03:45;99028.19;;;8.91;100.00
75136;BME280;63707;52.212;9.540;2023-10-31T23:06:11;99024.19;;;8.94;100.00
75136;BME280;63707;52.212;9.540;2023-10-31T23:08:36;99025.84;;;8.95;100.00
75136;BME280;63707;52.212;9.540;2023-10-31T23:11:03;99022.97;;;8.90;100.00
75136;BME280;63707;52.212;9.540;2023-10-31T23:13:30;99014.38;;;8.93;100.00
75136;BME280;63707;52.212;9.540;2023-10-31T23:15:55;99016.88;;;8.94;100.00
75136;BME280;63707;52.212;9.540;2023-10-31T23:18:21;99013.94;;;8.96;100.00
75136;BME280;63707;52.212;9.540;2023-10-31T23:20:46;99012.31;;;8.88;100.00
75136;BME280;63707;52.212;9.540;2023-10-31T23:23:12;99013.75;;;8.91;100.00
75136;BME280;63707;52.212;9.540;2023-10-31T23:25:38;99010.66;;;8.87;100.00
75136;BME280;63707;52.212;9.540;2023-10-31T23:28:04;99006.88;;;8.88;100.00
75136;BME280;63707;52.212;9.540;2023-10-31T23:30:31;99004.56;;;8.92;100.00
75136;BME280;63707;52.212;9.540;2023-10-31T23:32:56;99002.22;;;8.95;100.00
75136;BME280;63707;52.212;9.540;2023-10-31T23:35:22;99003.06;;;8.96;100.00
75136;BME280;63707;52.212;9.540;2023-10-31T23:37:47;99012.25;;;8.95;100.00
75136;BME280;63707;52.212;9.540;2023-10-31T23:40:13;99006.59;;;8.96;100.00
75136;BME280;63707;52.212;9.540;2023-10-31T23:42:39;99007.88;;;8.94;100.00
75136;BME280;63707;52.212;9.540;2023-10-31T23:45:05;99008.50;;;8.96;100.00
75136;BME280;63707;52.212;9.540;2023-10-31T23:47:32;98998.03;;;8.99;100.00
75136;BME280;63707;52.212;9.540;2023-10-31T23:49:57;99004.72;;;8.97;100.00
75136;BME280;63707;52.212;9.540;2023-10-31T23:52:23;98994.69;;;8.97;100.00
75136;BME280;63707;52.212;9.540;2023-10-31T23:54:49;99012.50;;;8.93;100.00
75136;BME280;63707;52.212;9.540;2023-10-31T23:57:15;99003.06;;;8.96;100.00
75136;BME280;63707;52.212;9.540;2023-10-31T23:59:41;99010.38;;;8.95;100.00
